Destinations Olbia Costa Smeralda Airport

Olbia Costa Smeralda Airport (LIEO / OLB)

Flights to Olbia Costa Smeralda Airport

Flight number From ETE Dispatch
SPY-2306 EGFF Cardiff International Airport 02:35
SPY-418 EHGG Groningen Airport Eelde 02:30

Flights from Olbia Costa Smeralda Airport

Flight number To ETE Dispatch
SPY-2307 EGFF Cardiff International Airport 02:35
SPY-419 EHGG Groningen Airport Eelde 02:30
About

Olbia Costa Smeralda Airport facts

Olbia Costa Smeralda Airport is located in Olbia at an elevation of 11.3 meters or 37 feet.

Currently, Speedy Airlines serves 4 flights to and from Olbia Costa Smeralda Airport.

Detailed airport info

Route map

Weather

Current weather

METAR

METAR

Metar data retrieved Sunday, 21 July 2024 at 19:55 UTC

LIEO 211920Z 33007KT CAVOK 29/25 Q1007
Wind Temperature
7 kt 29c